Marion, OH

12:37 AM EST on December 08, 2016 (GMT -0500)
Marion - Chateau | | Change Station

Elev 974 ft 40.57 °N, 83.11 °W | Updated 12 minutes ago

Overcast
Overcast
31.0 °F
Feels Like 27 °F
N
4.0
Wind Variable Wind from NW
Gusts 15.0 mph

Today
High -- | Low -- °F
--% Chance of Precip.
Yesterday
High -- | Low -- °F
Precip. -- in
Pressure 30.13 in
Visibility 10.0 miles
Clouds Mostly Cloudy 8000 ft
Overcast 11000 ft
Windchill 27 °F
Dew Point 24 °F
Humidity 75%
Rainfall 0.00 in
Snow Depth Not available.
7:43 AM 5:05 PM
First Quarter, 60% visible
METAR KMNN 080453Z AUTO 29009KT 10SM BKN080 OVC110 M01/M06 A3010 RMK AO2 SLP202 T10061056 400281039
Pressure 30.13 in
Visibility 10.0 miles
Clouds Mostly Cloudy 8000 ft
Overcast 11000 ft
Windchill 27 °F
Dew Point 24 °F
Humidity 75%
Rainfall 0.00 in
Snow Depth Not available.
7:43 AM 5:05 PM
First Quarter, 60% visible
METAR KMNN 080453Z AUTO 29009KT 10SM BKN080 OVC110 M01/M06 A3010 RMK AO2 SLP202 T10061056 400281039

10-Day Weather Forecast

Almanac

Astronomy

Dec. 08, 2016 Rise Set
Actual Time
Civil Twilight
Nautical Twilight
Astronomical Twilight
Moon
Length of Visible Light
Length of Day
Tomorrow will be .
, % of the Moon is Illuminated

Today's Extremes

State Highs State Lows

Community

WunderPhotos

Upload Photos

1,956,259 photos uploaded!

WunderBlog® & News

Nearby

Air Quality

  Air Quality AQ Index Pollutant
Not available.

Snow Depth

Station Depth Elevation

Earthquake Activity

City Distance Mag. Time & Date
Minimum magnitude displayed is 2.5.

Coastal Water Temperatures

Place Temperature

Stations

Nearby Weather Stations

Station Location Temp. Windchill Dew Point Humidity Wind Precip. Elev Updated Type
                   

Watches & Warnings

There are currently no watches in effect.